sensor_id;sensor_type;location;lat;lon;timestamp;temperature;humidity
47338;DHT22;33069;51.970;5.892;2023-02-28T00:01:01;1.80;72.10
47338;DHT22;33069;51.970;5.892;2023-02-28T00:03:26;1.70;72.00
47338;DHT22;33069;51.970;5.892;2023-02-28T00:05:52;1.80;72.30
47338;DHT22;33069;51.970;5.892;2023-02-28T00:08:18;2.00;72.00
47338;DHT22;33069;51.970;5.892;2023-02-28T00:10:43;2.10;71.80
47338;DHT22;33069;51.970;5.892;2023-02-28T00:13:09;2.20;71.30
47338;DHT22;33069;51.970;5.892;2023-02-28T00:15:35;2.40;71.30
47338;DHT22;33069;51.970;5.892;2023-02-28T00:18:01;2.50;71.30
47338;DHT22;33069;51.970;5.892;2023-02-28T00:20:26;2.70;70.40
47338;DHT22;33069;51.970;5.892;2023-02-28T00:22:53;2.90;69.80
47338;DHT22;33069;51.970;5.892;2023-02-28T00:25:22;2.90;69.50
47338;DHT22;33069;51.970;5.892;2023-02-28T00:27:48;2.60;69.20
47338;DHT22;33069;51.970;5.892;2023-02-28T00:30:19;2.40;70.10
47338;DHT22;33069;51.970;5.892;2023-02-28T00:32:46;2.40;70.50
47338;DHT22;33069;51.970;5.892;2023-02-28T00:35:12;2.60;70.10
47338;DHT22;33069;51.970;5.892;2023-02-28T00:37:38;2.60;69.60
47338;DHT22;33069;51.970;5.892;2023-02-28T00:40:05;2.70;69.60
47338;DHT22;33069;51.970;5.892;2023-02-28T00:42:32;2.70;69.40
47338;DHT22;33069;51.970;5.892;2023-02-28T00:44:58;2.80;69.40
47338;DHT22;33069;51.970;5.892;2023-02-28T00:47:24;2.80;69.20
47338;DHT22;33069;51.970;5.892;2023-02-28T00:49:49;2.70;69.20
47338;DHT22;33069;51.970;5.892;2023-02-28T00:52:15;2.80;69.20
47338;DHT22;33069;51.970;5.892;2023-02-28T00:54:41;3.00;68.60
47338;DHT22;33069;51.970;5.892;2023-02-28T00:57:06;2.80;68.30
47338;DHT22;33069;51.970;5.892;2023-02-28T00:59:32;2.80;68.40
47338;DHT22;33069;51.970;5.892;2023-02-28T01:01:58;2.80;68.90
47338;DHT22;33069;51.970;5.892;2023-02-28T01:04:24;2.90;69.00
47338;DHT22;33069;51.970;5.892;2023-02-28T01:06:50;2.80;68.60
47338;DHT22;33069;51.970;5.892;2023-02-28T01:09:15;3.00;68.50
47338;DHT22;33069;51.970;5.892;2023-02-28T01:11:41;3.00;68.20
47338;DHT22;33069;51.970;5.892;2023-02-28T01:14:12;2.90;68.00
47338;DHT22;33069;51.970;5.892;2023-02-28T01:16:39;2.80;68.10
47338;DHT22;33069;51.970;5.892;2023-02-28T01:19:04;2.90;68.50
47338;DHT22;33069;51.970;5.892;2023-02-28T01:21:30;2.80;68.10
47338;DHT22;33069;51.970;5.892;2023-02-28T01:23:57;2.70;68.30
47338;DHT22;33069;51.970;5.892;2023-02-28T01:26:23;2.70;68.80
47338;DHT22;33069;51.970;5.892;2023-02-28T01:28:50;2.80;68.90
47338;DHT22;33069;51.970;5.892;2023-02-28T01:31:18;2.80;68.80
47338;DHT22;33069;51.970;5.892;2023-02-28T01:33:45;2.90;68.90
47338;DHT22;33069;51.970;5.892;2023-02-28T01:36:19;2.90;68.50
47338;DHT22;33069;51.970;5.892;2023-02-28T01:38:46;2.80;68.50
47338;DHT22;33069;51.970;5.892;2023-02-28T01:41:20;2.70;69.20
47338;DHT22;33069;51.970;5.892;2023-02-28T01:46:13;2.60;70.20
47338;DHT22;33069;51.970;5.892;2023-02-28T01:48:45;2.70;70.40
47338;DHT22;33069;51.970;5.892;2023-02-28T01:51:19;2.60;69.70
47338;DHT22;33069;51.970;5.892;2023-02-28T01:53:51;2.50;70.40
47338;DHT22;33069;51.970;5.892;2023-02-28T01:56:22;2.50;70.70
47338;DHT22;33069;51.970;5.892;2023-02-28T01:58:51;2.50;71.00
47338;DHT22;33069;51.970;5.892;2023-02-28T02:01:19;2.70;71.00
47338;DHT22;33069;51.970;5.892;2023-02-28T02:03:53;2.70;70.50
47338;DHT22;33069;51.970;5.892;2023-02-28T02:06:45;2.70;70.80
47338;DHT22;33069;51.970;5.892;2023-02-28T02:09:10;2.70;70.50
47338;DHT22;33069;51.970;5.892;2023-02-28T02:11:36;2.50;71.20
47338;DHT22;33069;51.970;5.892;2023-02-28T02:28:29;2.80;70.20
47338;DHT22;33069;51.970;5.892;2023-02-28T02:31:32;2.80;70.10
47338;DHT22;33069;51.970;5.892;2023-02-28T02:34:24;3.00;70.10
47338;DHT22;33069;51.970;5.892;2023-02-28T02:42:55;3.00;69.30
47338;DHT22;33069;51.970;5.892;2023-02-28T02:45:28;2.90;68.90
47338;DHT22;33069;51.970;5.892;2023-02-28T02:48:02;3.10;69.00
47338;DHT22;33069;51.970;5.892;2023-02-28T02:50:37;3.40;67.30
47338;DHT22;33069;51.970;5.892;2023-02-28T02:53:05;3.20;66.70
47338;DHT22;33069;51.970;5.892;2023-02-28T02:55:34;3.20;66.50
47338;DHT22;33069;51.970;5.892;2023-02-28T02:58:07;3.20;66.50
47338;DHT22;33069;51.970;5.892;2023-02-28T03:00:37;3.30;65.30
47338;DHT22;33069;51.970;5.892;2023-02-28T03:03:06;3.10;65.10
47338;DHT22;33069;51.970;5.892;2023-02-28T03:05:44;3.20;63.80
47338;DHT22;33069;51.970;5.892;2023-02-28T03:08:11;3.20;63.90
47338;DHT22;33069;51.970;5.892;2023-02-28T03:10:39;3.30;63.50
47338;DHT22;33069;51.970;5.892;2023-02-28T03:13:12;3.10;63.80
47338;DHT22;33069;51.970;5.892;2023-02-28T03:15:51;3.20;63.50
47338;DHT22;33069;51.970;5.892;2023-02-28T03:21:27;3.10;64.40
47338;DHT22;33069;51.970;5.892;2023-02-28T03:24:11;2.90;64.50
47338;DHT22;33069;51.970;5.892;2023-02-28T03:26:45;3.00;64.40
47338;DHT22;33069;51.970;5.892;2023-02-28T03:29:19;3.00;64.20
47338;DHT22;33069;51.970;5.892;2023-02-28T03:31:57;3.00;64.50
47338;DHT22;33069;51.970;5.892;2023-02-28T03:34:36;3.10;64.40
47338;DHT22;33069;51.970;5.892;2023-02-28T03:37:08;2.90;64.10
47338;DHT22;33069;51.970;5.892;2023-02-28T03:39:49;2.90;64.10
47338;DHT22;33069;51.970;5.892;2023-02-28T03:42:22;2.80;64.50
47338;DHT22;33069;51.970;5.892;2023-02-28T03:44:58;2.80;64.40
47338;DHT22;33069;51.970;5.892;2023-02-28T03:47:29;2.80;64.60
47338;DHT22;33069;51.970;5.892;2023-02-28T03:50:27;2.70;64.00
47338;DHT22;33069;51.970;5.892;2023-02-28T03:55:25;2.40;65.10
47338;DHT22;33069;51.970;5.892;2023-02-28T03:58:01;2.40;65.40
47338;DHT22;33069;51.970;5.892;2023-02-28T04:00:34;2.40;64.60
47338;DHT22;33069;51.970;5.892;2023-02-28T04:03:01;2.40;64.00
47338;DHT22;33069;51.970;5.892;2023-02-28T04:05:27;2.40;63.50
47338;DHT22;33069;51.970;5.892;2023-02-28T04:07:54;2.40;63.70
47338;DHT22;33069;51.970;5.892;2023-02-28T04:10:20;2.70;63.60
47338;DHT22;33069;51.970;5.892;2023-02-28T04:12:45;2.60;63.50
47338;DHT22;33069;51.970;5.892;2023-02-28T04:15:11;2.50;63.70
47338;DHT22;33069;51.970;5.892;2023-02-28T04:17:37;2.40;63.80
47338;DHT22;33069;51.970;5.892;2023-02-28T04:20:04;2.40;63.10
47338;DHT22;33069;51.970;5.892;2023-02-28T04:22:34;2.40;62.20
47338;DHT22;33069;51.970;5.892;2023-02-28T04:25:00;2.40;61.10
47338;DHT22;33069;51.970;5.892;2023-02-28T04:27:26;2.40;61.40
47338;DHT22;33069;51.970;5.892;2023-02-28T04:29:51;2.40;59.90
47338;DHT22;33069;51.970;5.892;2023-02-28T04:32:17;2.40;59.80
47338;DHT22;33069;51.970;5.892;2023-02-28T04:34:43;2.50;60.00
47338;DHT22;33069;51.970;5.892;2023-02-28T04:37:08;2.40;59.90
47338;DHT22;33069;51.970;5.892;2023-02-28T04:39:36;2.30;59.90
47338;DHT22;33069;51.970;5.892;2023-02-28T04:42:02;2.30;60.20
47338;DHT22;33069;51.970;5.892;2023-02-28T04:44:28;2.20;61.20
47338;DHT22;33069;51.970;5.892;2023-02-28T04:46:54;2.10;62.10
47338;DHT22;33069;51.970;5.892;2023-02-28T04:49:19;2.00;62.70
47338;DHT22;33069;51.970;5.892;2023-02-28T04:51:45;2.00;63.60
47338;DHT22;33069;51.970;5.892;2023-02-28T04:54:11;2.00;64.70
47338;DHT22;33069;51.970;5.892;2023-02-28T04:56:37;1.80;64.80
47338;DHT22;33069;51.970;5.892;2023-02-28T04:59:03;1.80;65.60
47338;DHT22;33069;51.970;5.892;2023-02-28T05:01:31;1.80;65.80
47338;DHT22;33069;51.970;5.892;2023-02-28T05:04:00;1.80;66.70
47338;DHT22;33069;51.970;5.892;2023-02-28T05:06:28;1.70;67.20
47338;DHT22;33069;51.970;5.892;2023-02-28T05:08:55;1.70;67.60
47338;DHT22;33069;51.970;5.892;2023-02-28T05:11:26;1.70;68.10
47338;DHT22;33069;51.970;5.892;2023-02-28T05:13:54;1.70;68.40
47338;DHT22;33069;51.970;5.892;2023-02-28T05:16:20;1.70;68.50
47338;DHT22;33069;51.970;5.892;2023-02-28T05:18:46;1.70;68.70
47338;DHT22;33069;51.970;5.892;2023-02-28T05:21:26;1.60;68.70
47338;DHT22;33069;51.970;5.892;2023-02-28T05:23:52;1.60;69.10
47338;DHT22;33069;51.970;5.892;2023-02-28T05:26:18;1.60;68.90
47338;DHT22;33069;51.970;5.892;2023-02-28T05:28:44;1.60;69.00
47338;DHT22;33069;51.970;5.892;2023-02-28T05:31:12;1.70;69.00
47338;DHT22;33069;51.970;5.892;2023-02-28T05:33:38;1.70;69.30
47338;DHT22;33069;51.970;5.892;2023-02-28T05:36:05;1.80;68.90
47338;DHT22;33069;51.970;5.892;2023-02-28T05:38:31;1.70;68.60
47338;DHT22;33069;51.970;5.892;2023-02-28T05:40:57;1.70;68.90
47338;DHT22;33069;51.970;5.892;2023-02-28T05:43:23;1.70;68.70
47338;DHT22;33069;51.970;5.892;2023-02-28T05:45:49;1.70;68.50
47338;DHT22;33069;51.970;5.892;2023-02-28T05:48:15;1.80;68.50
47338;DHT22;33069;51.970;5.892;2023-02-28T05:50:40;1.70;68.40
47338;DHT22;33069;51.970;5.892;2023-02-28T05:53:08;1.70;68.30
47338;DHT22;33069;51.970;5.892;2023-02-28T05:55:33;1.90;68.20
47338;DHT22;33069;51.970;5.892;2023-02-28T05:58:01;1.80;68.00
47338;DHT22;33069;51.970;5.892;2023-02-28T06:00:27;2.00;67.80
47338;DHT22;33069;51.970;5.892;2023-02-28T06:02:53;1.80;68.10
47338;DHT22;33069;51.970;5.892;2023-02-28T06:05:22;1.70;68.70
47338;DHT22;33069;51.970;5.892;2023-02-28T06:07:47;1.70;68.80
47338;DHT22;33069;51.970;5.892;2023-02-28T06:10:13;1.70;68.60
47338;DHT22;33069;51.970;5.892;2023-02-28T06:12:39;1.70;68.80
47338;DHT22;33069;51.970;5.892;2023-02-28T06:15:09;1.70;69.00
47338;DHT22;33069;51.970;5.892;2023-02-28T06:17:36;1.90;69.10
47338;DHT22;33069;51.970;5.892;2023-02-28T06:20:03;1.90;68.60
47338;DHT22;33069;51.970;5.892;2023-02-28T06:22:29;1.80;68.60
47338;DHT22;33069;51.970;5.892;2023-02-28T06:24:54;2.00;68.70
47338;DHT22;33069;51.970;5.892;2023-02-28T06:27:20;2.10;67.70
47338;DHT22;33069;51.970;5.892;2023-02-28T06:29:46;2.20;67.50
47338;DHT22;33069;51.970;5.892;2023-02-28T06:32:12;2.30;68.00
47338;DHT22;33069;51.970;5.892;2023-02-28T06:34:38;2.40;67.60
47338;DHT22;33069;51.970;5.892;2023-02-28T06:37:03;2.40;67.50
47338;DHT22;33069;51.970;5.892;2023-02-28T06:39:30;2.50;67.40
47338;DHT22;33069;51.970;5.892;2023-02-28T06:41:56;2.70;67.00
47338;DHT22;33069;51.970;5.892;2023-02-28T06:44:22;2.90;65.90
47338;DHT22;33069;51.970;5.892;2023-02-28T06:46:48;3.20;64.30
47338;DHT22;33069;51.970;5.892;2023-02-28T06:49:14;3.20;63.70
47338;DHT22;33069;51.970;5.892;2023-02-28T06:51:42;3.00;63.40
47338;DHT22;33069;51.970;5.892;2023-02-28T06:54:10;2.80;63.40
47338;DHT22;33069;51.970;5.892;2023-02-28T06:56:37;2.80;63.30
47338;DHT22;33069;51.970;5.892;2023-02-28T06:59:03;3.10;63.40
47338;DHT22;33069;51.970;5.892;2023-02-28T07:01:29;3.30;61.90
47338;DHT22;33069;51.970;5.892;2023-02-28T07:03:57;3.20;61.70
47338;DHT22;33069;51.970;5.892;2023-02-28T07:06:23;3.30;60.80
47338;DHT22;33069;51.970;5.892;2023-02-28T07:08:51;3.30;60.50
47338;DHT22;33069;51.970;5.892;2023-02-28T07:11:17;3.20;60.20
47338;DHT22;33069;51.970;5.892;2023-02-28T07:13:43;3.00;60.70
47338;DHT22;33069;51.970;5.892;2023-02-28T07:16:11;3.20;60.10
47338;DHT22;33069;51.970;5.892;2023-02-28T07:18:37;3.50;58.60
47338;DHT22;33069;51.970;5.892;2023-02-28T07:21:08;3.50;59.30
47338;DHT22;33069;51.970;5.892;2023-02-28T07:23:36;3.40;59.50
47338;DHT22;33069;51.970;5.892;2023-02-28T07:26:04;3.40;60.10
47338;DHT22;33069;51.970;5.892;2023-02-28T07:28:29;3.50;59.10
47338;DHT22;33069;51.970;5.892;2023-02-28T07:30:55;3.30;58.50
47338;DHT22;33069;51.970;5.892;2023-02-28T07:33:21;3.40;58.10
47338;DHT22;33069;51.970;5.892;2023-02-28T07:35:47;3.20;58.80
47338;DHT22;33069;51.970;5.892;2023-02-28T07:38:12;3.30;58.50
47338;DHT22;33069;51.970;5.892;2023-02-28T07:40:39;3.50;58.70
47338;DHT22;33069;51.970;5.892;2023-02-28T07:43:05;3.40;57.90
47338;DHT22;33069;51.970;5.892;2023-02-28T07:45:31;3.40;58.90
47338;DHT22;33069;51.970;5.892;2023-02-28T07:48:00;3.50;58.20
47338;DHT22;33069;51.970;5.892;2023-02-28T07:50:26;3.60;58.00
47338;DHT22;33069;51.970;5.892;2023-02-28T07:52:57;3.40;58.50
47338;DHT22;33069;51.970;5.892;2023-02-28T07:55:23;3.20;59.00
47338;DHT22;33069;51.970;5.892;2023-02-28T07:57:49;3.20;59.00
47338;DHT22;33069;51.970;5.892;2023-02-28T08:00:15;3.20;59.10
47338;DHT22;33069;51.970;5.892;2023-02-28T08:02:40;3.00;59.30
47338;DHT22;33069;51.970;5.892;2023-02-28T08:05:07;3.20;58.90
47338;DHT22;33069;51.970;5.892;2023-02-28T08:07:33;3.00;58.40
47338;DHT22;33069;51.970;5.892;2023-02-28T08:09:59;3.00;57.90
47338;DHT22;33069;51.970;5.892;2023-02-28T08:12:25;3.00;57.70
47338;DHT22;33069;51.970;5.892;2023-02-28T08:14:51;2.90;57.60
47338;DHT22;33069;51.970;5.892;2023-02-28T08:17:17;3.20;57.30
47338;DHT22;33069;51.970;5.892;2023-02-28T08:19:45;3.00;57.60
47338;DHT22;33069;51.970;5.892;2023-02-28T08:22:11;3.20;57.70
47338;DHT22;33069;51.970;5.892;2023-02-28T08:24:37;3.10;57.10
47338;DHT22;33069;51.970;5.892;2023-02-28T08:27:03;3.00;57.30
47338;DHT22;33069;51.970;5.892;2023-02-28T08:29:28;3.30;57.10
47338;DHT22;33069;51.970;5.892;2023-02-28T08:31:55;3.30;56.30
47338;DHT22;33069;51.970;5.892;2023-02-28T08:34:21;3.50;54.70
47338;DHT22;33069;51.970;5.892;2023-02-28T08:36:47;3.30;54.30
47338;DHT22;33069;51.970;5.892;2023-02-28T08:39:12;3.40;54.00
47338;DHT22;33069;51.970;5.892;2023-02-28T08:41:38;3.20;54.00
47338;DHT22;33069;51.970;5.892;2023-02-28T08:44:04;3.30;53.70
47338;DHT22;33069;51.970;5.892;2023-02-28T08:46:30;3.50;52.80
47338;DHT22;33069;51.970;5.892;2023-02-28T08:48:56;3.50;53.00
47338;DHT22;33069;51.970;5.892;2023-02-28T08:51:27;3.40;53.00
47338;DHT22;33069;51.970;5.892;2023-02-28T08:53:55;3.40;52.40
47338;DHT22;33069;51.970;5.892;2023-02-28T08:56:21;3.50;51.20
47338;DHT22;33069;51.970;5.892;2023-02-28T08:58:49;3.40;50.60
47338;DHT22;33069;51.970;5.892;2023-02-28T09:01:20;3.40;51.40
47338;DHT22;33069;51.970;5.892;2023-02-28T09:03:47;3.60;50.30
47338;DHT22;33069;51.970;5.892;2023-02-28T09:06:15;3.50;50.50
47338;DHT22;33069;51.970;5.892;2023-02-28T09:08:41;3.70;50.50
47338;DHT22;33069;51.970;5.892;2023-02-28T09:11:07;3.80;48.40
47338;DHT22;33069;51.970;5.892;2023-02-28T09:13:33;3.60;49.20
47338;DHT22;33069;51.970;5.892;2023-02-28T09:16:01;3.60;48.50
47338;DHT22;33069;51.970;5.892;2023-02-28T09:18:27;3.80;48.70
47338;DHT22;33069;51.970;5.892;2023-02-28T09:20:53;4.10;48.60
47338;DHT22;33069;51.970;5.892;2023-02-28T09:23:19;3.80;47.30
47338;DHT22;33069;51.970;5.892;2023-02-28T09:25:47;3.80;47.70
47338;DHT22;33069;51.970;5.892;2023-02-28T09:28:14;4.10;46.10
47338;DHT22;33069;51.970;5.892;2023-02-28T09:30:48;4.10;45.20
47338;DHT22;33069;51.970;5.892;2023-02-28T09:33:14;4.10;46.60
47338;DHT22;33069;51.970;5.892;2023-02-28T09:35:41;4.10;46.50
47338;DHT22;33069;51.970;5.892;2023-02-28T09:38:09;4.00;45.70
47338;DHT22;33069;51.970;5.892;2023-02-28T09:40:48;4.00;46.70
47338;DHT22;33069;51.970;5.892;2023-02-28T09:43:15;4.20;46.20
47338;DHT22;33069;51.970;5.892;2023-02-28T09:46:00;4.20;45.80
47338;DHT22;33069;51.970;5.892;2023-02-28T09:48:32;4.30;45.50
47338;DHT22;33069;51.970;5.892;2023-02-28T09:51:11;4.30;46.20
47338;DHT22;33069;51.970;5.892;2023-02-28T09:53:38;4.60;45.30
47338;DHT22;33069;51.970;5.892;2023-02-28T09:56:10;4.40;44.20
47338;DHT22;33069;51.970;5.892;2023-02-28T10:01:25;4.10;45.10
47338;DHT22;33069;51.970;5.892;2023-02-28T10:06:33;4.40;45.70
47338;DHT22;33069;51.970;5.892;2023-02-28T10:11:51;4.50;43.70
47338;DHT22;33069;51.970;5.892;2023-02-28T10:14:23;4.40;44.30
47338;DHT22;33069;51.970;5.892;2023-02-28T10:16:59;4.40;44.20
47338;DHT22;33069;51.970;5.892;2023-02-28T10:22:49;4.50;44.40
47338;DHT22;33069;51.970;5.892;2023-02-28T10:25:20;4.60;44.80
47338;DHT22;33069;51.970;5.892;2023-02-28T10:27:46;4.80;44.60
47338;DHT22;33069;51.970;5.892;2023-02-28T10:30:13;4.90;44.20
47338;DHT22;33069;51.970;5.892;2023-02-28T10:32:49;5.10;43.90
47338;DHT22;33069;51.970;5.892;2023-02-28T10:35:24;5.10;42.90
47338;DHT22;33069;51.970;5.892;2023-02-28T10:37:58;5.10;43.10
47338;DHT22;33069;51.970;5.892;2023-02-28T10:40:32;4.80;43.40
47338;DHT22;33069;51.970;5.892;2023-02-28T10:43:07;4.80;42.90
47338;DHT22;33069;51.970;5.892;2023-02-28T10:45:57;4.80;43.50
47338;DHT22;33069;51.970;5.892;2023-02-28T10:50:55;5.00;44.10
47338;DHT22;33069;51.970;5.892;2023-02-28T10:59:00;5.30;44.50
47338;DHT22;33069;51.970;5.892;2023-02-28T11:01:41;5.30;45.20
47338;DHT22;33069;51.970;5.892;2023-02-28T11:07:01;5.20;44.60
47338;DHT22;33069;51.970;5.892;2023-02-28T11:09:35;5.30;45.50
47338;DHT22;33069;51.970;5.892;2023-02-28T11:12:07;5.30;44.50
47338;DHT22;33069;51.970;5.892;2023-02-28T11:14:47;5.20;44.80
47338;DHT22;33069;51.970;5.892;2023-02-28T11:17:23;5.20;45.40
47338;DHT22;33069;51.970;5.892;2023-02-28T11:20:04;5.40;44.70
47338;DHT22;33069;51.970;5.892;2023-02-28T11:22:39;5.20;44.90
47338;DHT22;33069;51.970;5.892;2023-02-28T11:25:30;5.50;44.40
47338;DHT22;33069;51.970;5.892;2023-02-28T11:27:59;5.40;45.60
47338;DHT22;33069;51.970;5.892;2023-02-28T11:30:41;5.40;45.30
47338;DHT22;33069;51.970;5.892;2023-02-28T11:33:29;5.60;44.10
47338;DHT22;33069;51.970;5.892;2023-02-28T11:36:02;5.70;43.70
47338;DHT22;33069;51.970;5.892;2023-02-28T11:38:29;5.70;43.80
47338;DHT22;33069;51.970;5.892;2023-02-28T11:46:56;5.80;43.40
47338;DHT22;33069;51.970;5.892;2023-02-28T11:49:37;5.70;42.60
47338;DHT22;33069;51.970;5.892;2023-02-28T11:54:47;6.00;42.00
47338;DHT22;33069;51.970;5.892;2023-02-28T11:57:26;5.80;41.50
47338;DHT22;33069;51.970;5.892;2023-02-28T12:03:03;5.70;43.20
47338;DHT22;33069;51.970;5.892;2023-02-28T12:05:49;5.90;41.70
47338;DHT22;33069;51.970;5.892;2023-02-28T12:08:32;5.80;43.20
47338;DHT22;33069;51.970;5.892;2023-02-28T12:22:35;6.00;42.50
47338;DHT22;33069;51.970;5.892;2023-02-28T12:25:32;6.10;42.00
47338;DHT22;33069;51.970;5.892;2023-02-28T12:27:56;6.20;42.20
47338;DHT22;33069;51.970;5.892;2023-02-28T12:30:25;5.90;42.50
47338;DHT22;33069;51.970;5.892;2023-02-28T12:33:07;5.90;42.40
47338;DHT22;33069;51.970;5.892;2023-02-28T12:35:38;5.90;42.20
47338;DHT22;33069;51.970;5.892;2023-02-28T12:38:17;5.80;43.40
47338;DHT22;33069;51.970;5.892;2023-02-28T12:40:47;6.10;43.10
47338;DHT22;33069;51.970;5.892;2023-02-28T12:43:17;6.20;41.50
47338;DHT22;33069;51.970;5.892;2023-02-28T12:45:59;6.20;41.50
47338;DHT22;33069;51.970;5.892;2023-02-28T12:48:43;6.30;42.00
47338;DHT22;33069;51.970;5.892;2023-02-28T12:51:10;6.20;41.20
47338;DHT22;33069;51.970;5.892;2023-02-28T12:58:59;6.10;41.50
47338;DHT22;33069;51.970;5.892;2023-02-28T13:01:33;6.40;41.70
47338;DHT22;33069;51.970;5.892;2023-02-28T13:09:33;6.00;40.40
47338;DHT22;33069;51.970;5.892;2023-02-28T13:11:59;5.90;41.50
47338;DHT22;33069;51.970;5.892;2023-02-28T13:14:37;6.00;41.60
47338;DHT22;33069;51.970;5.892;2023-02-28T13:17:17;5.90;41.80
47338;DHT22;33069;51.970;5.892;2023-02-28T13:20:03;6.10;41.20
47338;DHT22;33069;51.970;5.892;2023-02-28T13:25:00;6.40;41.40
47338;DHT22;33069;51.970;5.892;2023-02-28T13:27:42;6.40;41.40
47338;DHT22;33069;51.970;5.892;2023-02-28T13:35:50;6.50;40.90
47338;DHT22;33069;51.970;5.892;2023-02-28T13:38:34;6.50;40.70
47338;DHT22;33069;51.970;5.892;2023-02-28T13:44:17;6.10;40.90
47338;DHT22;33069;51.970;5.892;2023-02-28T14:00:06;6.20;39.60
47338;DHT22;33069;51.970;5.892;2023-02-28T14:05:22;6.70;39.60
47338;DHT22;33069;51.970;5.892;2023-02-28T14:08:15;7.20;40.40
47338;DHT22;33069;51.970;5.892;2023-02-28T14:10:46;6.80;39.40
47338;DHT22;33069;51.970;5.892;2023-02-28T14:15:59;7.40;38.40
47338;DHT22;33069;51.970;5.892;2023-02-28T14:18:34;7.50;38.80
47338;DHT22;33069;51.970;5.892;2023-02-28T14:21:14;7.70;38.70
47338;DHT22;33069;51.970;5.892;2023-02-28T14:24:20;7.40;39.00
47338;DHT22;33069;51.970;5.892;2023-02-28T14:30:18;7.60;38.90
47338;DHT22;33069;51.970;5.892;2023-02-28T14:33:14;7.60;38.80
47338;DHT22;33069;51.970;5.892;2023-02-28T14:36:16;7.40;39.00
47338;DHT22;33069;51.970;5.892;2023-02-28T14:38:46;7.60;39.50
47338;DHT22;33069;51.970;5.892;2023-02-28T14:41:24;7.50;38.90
47338;DHT22;33069;51.970;5.892;2023-02-28T14:43:59;7.30;40.00
47338;DHT22;33069;51.970;5.892;2023-02-28T14:46:39;7.30;40.40
47338;DHT22;33069;51.970;5.892;2023-02-28T14:49:07;7.30;39.80
47338;DHT22;33069;51.970;5.892;2023-02-28T14:51:38;7.50;40.00
47338;DHT22;33069;51.970;5.892;2023-02-28T14:54:04;8.00;38.60
47338;DHT22;33069;51.970;5.892;2023-02-28T14:56:37;7.60;38.60
47338;DHT22;33069;51.970;5.892;2023-02-28T14:59:04;7.90;39.30
47338;DHT22;33069;51.970;5.892;2023-02-28T15:01:30;7.90;38.50
47338;DHT22;33069;51.970;5.892;2023-02-28T15:04:05;8.00;37.60
47338;DHT22;33069;51.970;5.892;2023-02-28T15:06:32;7.90;38.20
47338;DHT22;33069;51.970;5.892;2023-02-28T15:09:10;7.80;38.30
47338;DHT22;33069;51.970;5.892;2023-02-28T15:11:39;7.80;38.60
47338;DHT22;33069;51.970;5.892;2023-02-28T15:14:05;8.10;38.00
47338;DHT22;33069;51.970;5.892;2023-02-28T15:16:36;7.80;38.10
47338;DHT22;33069;51.970;5.892;2023-02-28T15:19:23;8.00;38.30
47338;DHT22;33069;51.970;5.892;2023-02-28T15:22:00;8.30;38.00
47338;DHT22;33069;51.970;5.892;2023-02-28T15:24:43;8.20;37.00
47338;DHT22;33069;51.970;5.892;2023-02-28T15:27:22;8.20;37.20
47338;DHT22;33069;51.970;5.892;2023-02-28T15:29:53;8.30;37.60
47338;DHT22;33069;51.970;5.892;2023-02-28T15:34:49;8.30;38.00
47338;DHT22;33069;51.970;5.892;2023-02-28T15:37:45;8.70;37.30
47338;DHT22;33069;51.970;5.892;2023-02-28T15:42:40;8.20;38.00
47338;DHT22;33069;51.970;5.892;2023-02-28T15:45:37;8.30;37.50
47338;DHT22;33069;51.970;5.892;2023-02-28T15:48:17;8.00;37.50
47338;DHT22;33069;51.970;5.892;2023-02-28T15:50:44;8.20;36.50
47338;DHT22;33069;51.970;5.892;2023-02-28T15:53:17;8.10;36.50
47338;DHT22;33069;51.970;5.892;2023-02-28T15:55:44;8.00;37.30
47338;DHT22;33069;51.970;5.892;2023-02-28T15:58:12;7.80;37.30
47338;DHT22;33069;51.970;5.892;2023-02-28T16:00:39;8.10;38.20
47338;DHT22;33069;51.970;5.892;2023-02-28T16:03:27;8.20;37.90
47338;DHT22;33069;51.970;5.892;2023-02-28T16:08:42;8.10;37.50
47338;DHT22;33069;51.970;5.892;2023-02-28T16:11:11;7.90;38.60
47338;DHT22;33069;51.970;5.892;2023-02-28T16:13:37;8.20;38.50
47338;DHT22;33069;51.970;5.892;2023-02-28T16:16:03;8.20;38.10
47338;DHT22;33069;51.970;5.892;2023-02-28T16:18:29;7.90;38.10
47338;DHT22;33069;51.970;5.892;2023-02-28T16:20:54;8.00;39.00
47338;DHT22;33069;51.970;5.892;2023-02-28T16:23:20;8.20;37.00
47338;DHT22;33069;51.970;5.892;2023-02-28T16:25:46;8.10;38.10
47338;DHT22;33069;51.970;5.892;2023-02-28T16:28:20;8.00;38.40
47338;DHT22;33069;51.970;5.892;2023-02-28T16:30:46;7.90;38.80
47338;DHT22;33069;51.970;5.892;2023-02-28T16:33:12;7.60;38.80
47338;DHT22;33069;51.970;5.892;2023-02-28T16:35:38;7.70;39.00
47338;DHT22;33069;51.970;5.892;2023-02-28T16:38:03;7.50;40.30
47338;DHT22;33069;51.970;5.892;2023-02-28T16:40:33;7.80;40.30
47338;DHT22;33069;51.970;5.892;2023-02-28T16:43:00;7.70;39.40
47338;DHT22;33069;51.970;5.892;2023-02-28T16:45:29;8.00;38.80
47338;DHT22;33069;51.970;5.892;2023-02-28T16:47:55;7.50;39.40
47338;DHT22;33069;51.970;5.892;2023-02-28T16:50:24;7.40;40.30
47338;DHT22;33069;51.970;5.892;2023-02-28T16:52:50;7.20;40.60
47338;DHT22;33069;51.970;5.892;2023-02-28T16:55:21;7.00;41.00
47338;DHT22;33069;51.970;5.892;2023-02-28T16:57:58;6.90;40.80
47338;DHT22;33069;51.970;5.892;2023-02-28T17:00:26;6.80;41.00
47338;DHT22;33069;51.970;5.892;2023-02-28T17:02:53;6.50;42.40
47338;DHT22;33069;51.970;5.892;2023-02-28T17:05:19;6.40;42.80
47338;DHT22;33069;51.970;5.892;2023-02-28T17:07:45;6.10;43.90
47338;DHT22;33069;51.970;5.892;2023-02-28T17:10:15;6.10;43.50
47338;DHT22;33069;51.970;5.892;2023-02-28T17:12:42;6.10;43.90
47338;DHT22;33069;51.970;5.892;2023-02-28T17:15:10;6.30;43.70
47338;DHT22;33069;51.970;5.892;2023-02-28T17:17:39;6.30;43.50
47338;DHT22;33069;51.970;5.892;2023-02-28T17:20:05;6.20;43.10
47338;DHT22;33069;51.970;5.892;2023-02-28T17:22:32;6.10;44.00
47338;DHT22;33069;51.970;5.892;2023-02-28T17:24:58;6.10;43.40
47338;DHT22;33069;51.970;5.892;2023-02-28T17:27:24;5.80;43.90
47338;DHT22;33069;51.970;5.892;2023-02-28T17:29:51;5.80;44.00
47338;DHT22;33069;51.970;5.892;2023-02-28T17:32:16;5.50;44.80
47338;DHT22;33069;51.970;5.892;2023-02-28T17:34:43;5.40;44.80
47338;DHT22;33069;51.970;5.892;2023-02-28T17:37:09;5.40;45.30
47338;DHT22;33069;51.970;5.892;2023-02-28T17:39:35;5.40;45.50
47338;DHT22;33069;51.970;5.892;2023-02-28T17:42:01;5.40;44.80
47338;DHT22;33069;51.970;5.892;2023-02-28T17:44:27;5.30;46.10
47338;DHT22;33069;51.970;5.892;2023-02-28T17:46:54;5.30;45.50
47338;DHT22;33069;51.970;5.892;2023-02-28T17:49:20;5.30;45.70
47338;DHT22;33069;51.970;5.892;2023-02-28T17:51:46;5.10;45.90
47338;DHT22;33069;51.970;5.892;2023-02-28T17:54:13;5.00;46.20
47338;DHT22;33069;51.970;5.892;2023-02-28T17:56:40;5.00;46.60
47338;DHT22;33069;51.970;5.892;2023-02-28T17:59:09;5.00;46.10
47338;DHT22;33069;51.970;5.892;2023-02-28T18:01:35;5.10;46.00
47338;DHT22;33069;51.970;5.892;2023-02-28T18:04:01;5.00;46.70
47338;DHT22;33069;51.970;5.892;2023-02-28T18:06:36;4.80;46.80
47338;DHT22;33069;51.970;5.892;2023-02-28T18:09:16;4.90;47.60